Flight Track Log - Related Links

Times and Time Zones

All times are in EDT time to prevent confusion due to time zone crossing. See the LOF3372 flight status page for this flight to view local times or setup timezone preferences in your user account.

Time Position Orientation Groundspeed Altitude Reporting Facility
EDT Latitude Longitude Course Direction KTS MPH feet Rate Location/Type
Sun 10:33:04 PM 38.9500 -77.5000 270° West 168 193 1,300  Level Potomac TRACON
Sun 10:34:04 PM 38.9333 -77.5667 252° West 219 252 2,900 1,750 Climbing Potomac TRACON
Sun 10:35:00 PM 38.8772 -77.8433 260° West  Level FlightAware Approximate
Sun 10:35:04 PM 38.9000 -77.6667 247° West 267 307 4,800  Level Potomac TRACON
Sun 10:36:00 PM 38.8854 -77.9748 288° West  Level FlightAware Approximate
Sun 10:36:04 PM 38.8833 -77.7500 256° West 272 313 6,700  Level Potomac TRACON
Sun 10:37:00 PM 38.9182 -78.1058 288° West  Level FlightAware Approximate
Sun 10:37:04 PM 38.8833 -77.8500 270° West 280 322 9,300  Level Potomac TRACON
Sun 10:38:00 PM 38.9500 -78.2341 270° West  Level FlightAware Approximate
Sun 10:38:14 PM 38.8839 -77.9625 270° West 322 371 10,700  Level Washington Center
Sun 10:39:15 PM 38.9208 -78.0836 291° West 353 406 12,000 1,412 Climbing Washington Center
Sun 10:40:13 PM 38.9539 -78.1969 291° West 363 418 13,500 1,627 Climbing Washington Center
Sun 10:41:13 PM 38.9636 -78.3253 276° West 363 418 15,200 1,884 Climbing Washington Center
Sun 10:42:14 PM 38.9692 -78.4511 273° West 363 418 17,300 1,800 Climbing Washington Center
Sun 10:43:13 PM 38.9725 -78.5714 272° West 352 405 18,800 1,500 Climbing Washington Center
Sun 10:44:14 PM 38.9756 -78.6997 272° West 352 405 20,300 1,438 Climbing Washington Center
Sun 10:45:14 PM 38.9803 -78.8281 273° West 352 405 21,700 1,400 Climbing Washington Center
Sun 10:46:14 PM 38.9850 -78.9592 273° West 362 417 23,100 1,450 Climbing Washington Center
Sun 10:47:14 PM 38.9875 -79.0900 271° West 367 422 24,600 1,400 Climbing Washington Center
Sun 10:48:14 PM 38.9919 -79.2267 272° West 377 434 25,900 1,160 Climbing Washington Center
Sun 10:49:13 PM 39.0044 -79.3633 277° West 383 441 26,900 958 Climbing Washington Center
Sun 10:50:13 PM 39.0167 -79.5031 276° West 390 449 27,800 550 Climbing Washington Center
Sun 10:51:13 PM 39.0261 -79.6586 275° West 410 472 28,000 98 Climbing Washington Center
Sun 10:52:15 PM 39.0375 -79.8114 276° West 427 491 28,000  Level Washington Center
Sun 10:53:48 PM 39.0575 -80.0858 275° West 457 526 28,000  Level Indianapolis Center
Sun 10:54:49 PM 39.0686 -80.2342 276° West 467 537 28,000  Level Indianapolis Center
Sun 10:55:50 PM 39.0800 -80.4025 275° West 473 544 28,000  Level Indianapolis Center
Sun 10:56:51 PM 39.0928 -80.5714 276° West 477 549 28,000  Level Indianapolis Center
Sun 10:57:52 PM 39.1131 -80.7411 279° West 479 551 28,000  Level Indianapolis Center
Sun 10:58:52 PM 39.1314 -80.9083 278° West 476 548 28,000  Level Indianapolis Center
Sun 10:59:53 PM 39.1514 -81.0747 279° West 472 543 28,000  Level Indianapolis Center
Sun 11:00:54 PM 39.1747 -81.2758 279° West 476 548 28,000  Level Indianapolis Center
Sun 11:01:55 PM 39.1936 -81.4433 278° West 475 547 28,000  Level Indianapolis Center
Sun 11:02:56 PM 39.2128 -81.6114 278° West 477 549 28,000  Level Indianapolis Center
Sun 11:03:57 PM 39.2306 -81.7803 278° West 479 551 28,000  Level Indianapolis Center
Sun 11:04:57 PM 39.2492 -81.9492 278° West 479 551 28,000  Level Indianapolis Center
Sun 11:05:58 PM 39.2678 -82.1197 278° West 481 554 28,000  Level Indianapolis Center
Sun 11:06:59 PM 39.2853 -82.2931 277° West 485 558 28,000 -98 Level Indianapolis Center
Sun 11:08:00 PM 39.3028 -82.4633 278° West 483 556 27,800 -1,426 Descending Indianapolis Center
Sun 11:09:01 PM 39.3217 -82.6500 278° West 481 554 25,100 -2,607 Descending Indianapolis Center
Sun 11:10:02 PM 39.3378 -82.8147 277° West 466 536 22,500 -2,529 Descending Indianapolis Center
Sun 11:11:02 PM 39.3536 -82.9664 278° West 431 496 20,000 -2,529 Descending Indianapolis Center
Sun 11:12:03 PM 39.3672 -83.1150 277° West 418 481 17,400 -2,571 Descending Indianapolis Center
Sun 11:12:19 PM 39.3719 -83.1625 277° West 411 473 16,700 -2,550 Descending Indianapolis Center
Sun 11:12:43 PM 39.3783 -83.2172 279° West 405 466 15,700 -2,533 Descending Indianapolis Center
Sun 11:13:04 PM 39.3819 -83.2614 276° West 408 470 14,800 -2,291 Descending Indianapolis Center
Sun 11:13:38 PM 39.3903 -83.3456 277° West 391 450 13,600 -1,967 Descending Indianapolis Center
Sun 11:14:05 PM 39.3953 -83.4025 277° West 393 452 12,800 -1,808 Descending Indianapolis Center
Sun 11:14:51 PM 39.4139 -83.5103 283° West 380 437 11,400 -1,415 Descending Indianapolis Center
Sun 11:15:51 PM 39.4864 -83.6083 314° West 375 432 10,300 -1,120 Descending Indianapolis Center
Sun 11:16:06 PM 39.5017 -83.6269 317° Northwest 374 430 10,000 -295 Descending Indianapolis Center
Sun 11:16:52 PM 39.5636 -83.6964 319° Northwest 372 428 10,000 -98 Level Indianapolis Center
Sun 11:17:07 PM 39.5822 -83.7153 322° Northwest 373 429 9,900 -98 Descending Indianapolis Center
Sun 11:17:53 PM 39.6392 -83.7764 320° Northwest 320 368 9,900 -849 Level Indianapolis Center
Sun 11:18:53 PM 39.7028 -83.8494 319° Northwest 308 354 8,400 -1,600 Descending Indianapolis Center
Sun 11:19:08 PM 39.7211 -83.8669 324° Northwest 308 354 7,900 -1,574 Descending Indianapolis Center
Sun 11:19:54 PM 39.7686 -83.9203 319° Northwest 303 349 6,800 -1,672 Descending Indianapolis Center
Sun 11:20:09 PM 39.7858 -83.9383 321° Northwest 303 349 6,200 -1,658 Descending Indianapolis Center
Sun 11:21:10 PM 39.8481 -84.0064 320° Northwest 295 339 4,700 -1,245 Descending Indianapolis Center
Sun 11:21:55 PM 39.8900 -84.0583 316° Northwest 279 321 4,000 -800 Descending Indianapolis Center
Sun 11:22:10 PM 39.8969 -84.0631 332° Northwest 288 331 3,900 -1,180 Descending Indianapolis Center
Sun 11:22:56 PM 39.9378 -84.1189 314° West 217 250 2,800 -1,082 Descending Indianapolis Center
Sun 11:23:11 PM 39.9431 -84.1244 321° Northwest 253 291 2,800 -1,111 Level Indianapolis Center
Sun 11:23:50 PM 39.9358 -84.1703 258° West 147 169 1,800 -1,180 Descending Indianapolis Center
Sun 11:24:12 PM 39.9314 -84.1797 238° Southwest 187 215 1,600 -293 Descending Indianapolis Center
Sun 11:25:12 PM 39.9064 -84.2289 236° Southwest 172 198 1,400 -200 Descending Indianapolis Center

Login

Don't have an account? Register now (free) for customized features, flight alerts, and more!